sensor_id;sensor_type;location;lat;lon;timestamp;P1;durP1;ratioP1;P2;durP2;ratioP2
54845;SDS011;53889;50.084;8.646;2024-03-25T00:00:51;5.25;;;1.40;;
54845;SDS011;53889;50.084;8.646;2024-03-25T00:03:30;5.78;;;2.00;;
54845;SDS011;53889;50.084;8.646;2024-03-25T00:06:02;3.72;;;1.42;;
54845;SDS011;53889;50.084;8.646;2024-03-25T00:08:31;5.38;;;1.58;;
54845;SDS011;53889;50.084;8.646;2024-03-25T00:11:04;3.58;;;1.42;;
54845;SDS011;53889;50.084;8.646;2024-03-25T00:14:00;6.10;;;1.60;;
54845;SDS011;53889;50.084;8.646;2024-03-25T00:36:00;4.82;;;1.65;;
54845;SDS011;53889;50.084;8.646;2024-03-25T00:38:27;5.50;;;1.60;;
54845;SDS011;53889;50.084;8.646;2024-03-25T00:40:57;5.53;;;1.50;;
54845;SDS011;53889;50.084;8.646;2024-03-25T00:43:27;8.50;;;1.90;;
54845;SDS011;53889;50.084;8.646;2024-03-25T00:45:54;6.75;;;1.60;;
54845;SDS011;53889;50.084;8.646;2024-03-25T00:48:23;7.07;;;1.65;;
54845;SDS011;53889;50.084;8.646;2024-03-25T00:50:50;7.60;;;4.35;;
54845;SDS011;53889;50.084;8.646;2024-03-25T00:53:18;6.10;;;1.90;;
54845;SDS011;53889;50.084;8.646;2024-03-25T00:55:45;9.27;;;2.30;;
54845;SDS011;53889;50.084;8.646;2024-03-25T00:58:13;6.05;;;1.50;;
54845;SDS011;53889;50.084;8.646;2024-03-25T01:00:40;3.67;;;1.45;;
54845;SDS011;53889;50.084;8.646;2024-03-25T01:03:13;5.13;;;1.48;;
54845;SDS011;53889;50.084;8.646;2024-03-25T01:05:39;6.28;;;1.73;;
54845;SDS011;53889;50.084;8.646;2024-03-25T01:08:07;7.50;;;1.73;;
54845;SDS011;53889;50.084;8.646;2024-03-25T01:10:37;4.68;;;1.60;;
54845;SDS011;53889;50.084;8.646;2024-03-25T01:13:06;5.43;;;1.50;;
54845;SDS011;53889;50.084;8.646;2024-03-25T01:15:33;4.28;;;1.85;;
54845;SDS011;53889;50.084;8.646;2024-03-25T01:18:00;5.90;;;1.73;;
54845;SDS011;53889;50.084;8.646;2024-03-25T01:20:27;5.68;;;1.58;;
54845;SDS011;53889;50.084;8.646;2024-03-25T01:25:38;5.45;;;1.85;;
54845;SDS011;53889;50.084;8.646;2024-03-25T01:28:06;5.30;;;1.90;;
54845;SDS011;53889;50.084;8.646;2024-03-25T01:30:32;5.68;;;1.73;;
54845;SDS011;53889;50.084;8.646;2024-03-25T01:51:56;7.32;;;1.85;;
54845;SDS011;53889;50.084;8.646;2024-03-25T01:54:25;6.82;;;2.00;;
54845;SDS011;53889;50.084;8.646;2024-03-25T01:56:52;4.78;;;1.95;;
54845;SDS011;53889;50.084;8.646;2024-03-25T01:59:21;5.95;;;1.60;;
54845;SDS011;53889;50.084;8.646;2024-03-25T02:01:50;10.52;;;2.15;;
54845;SDS011;53889;50.084;8.646;2024-03-25T02:04:20;4.72;;;1.73;;
54845;SDS011;53889;50.084;8.646;2024-03-25T02:33:44;5.72;;;1.77;;
54845;SDS011;53889;50.084;8.646;2024-03-25T02:36:11;4.45;;;1.70;;
54845;SDS011;53889;50.084;8.646;2024-03-25T02:38:37;4.90;;;1.63;;
54845;SDS011;53889;50.084;8.646;2024-03-25T02:41:04;6.78;;;1.98;;
54845;SDS011;53889;50.084;8.646;2024-03-25T02:43:31;7.15;;;2.00;;
54845;SDS011;53889;50.084;8.646;2024-03-25T02:45:58;6.22;;;1.80;;
54845;SDS011;53889;50.084;8.646;2024-03-25T02:48:24;6.68;;;2.10;;
54845;SDS011;53889;50.084;8.646;2024-03-25T02:50:53;7.40;;;2.10;;
54845;SDS011;53889;50.084;8.646;2024-03-25T02:53:19;6.10;;;1.85;;
54845;SDS011;53889;50.084;8.646;2024-03-25T02:55:46;7.63;;;2.10;;
54845;SDS011;53889;50.084;8.646;2024-03-25T02:58:12;6.80;;;1.90;;
54845;SDS011;53889;50.084;8.646;2024-03-25T03:00:40;9.57;;;2.15;;
54845;SDS011;53889;50.084;8.646;2024-03-25T03:03:06;8.20;;;2.20;;
54845;SDS011;53889;50.084;8.646;2024-03-25T03:05:33;7.15;;;2.40;;
54845;SDS011;53889;50.084;8.646;2024-03-25T03:08:01;5.15;;;1.80;;
54845;SDS011;53889;50.084;8.646;2024-03-25T03:10:29;7.50;;;2.20;;
54845;SDS011;53889;50.084;8.646;2024-03-25T03:12:56;8.77;;;1.88;;
54845;SDS011;53889;50.084;8.646;2024-03-25T03:15:24;9.02;;;2.10;;
54845;SDS011;53889;50.084;8.646;2024-03-25T03:17:50;6.00;;;1.65;;
54845;SDS011;53889;50.084;8.646;2024-03-25T03:20:17;7.45;;;2.00;;
54845;SDS011;53889;50.084;8.646;2024-03-25T03:22:43;6.90;;;2.00;;
54845;SDS011;53889;50.084;8.646;2024-03-25T03:25:14;5.15;;;1.80;;
54845;SDS011;53889;50.084;8.646;2024-03-25T03:27:41;6.95;;;2.03;;
54845;SDS011;53889;50.084;8.646;2024-03-25T03:30:09;7.63;;;1.80;;
54845;SDS011;53889;50.084;8.646;2024-03-25T03:32:36;6.68;;;1.85;;
54845;SDS011;53889;50.084;8.646;2024-03-25T03:35:03;8.23;;;2.13;;
54845;SDS011;53889;50.084;8.646;2024-03-25T03:37:30;8.38;;;2.63;;
54845;SDS011;53889;50.084;8.646;2024-03-25T03:39:58;6.07;;;1.85;;
54845;SDS011;53889;50.084;8.646;2024-03-25T03:42:25;7.28;;;2.15;;
54845;SDS011;53889;50.084;8.646;2024-03-25T03:44:52;11.02;;;1.92;;
54845;SDS011;53889;50.084;8.646;2024-03-25T03:47:18;4.72;;;1.60;;
54845;SDS011;53889;50.084;8.646;2024-03-25T03:49:45;6.22;;;1.90;;
54845;SDS011;53889;50.084;8.646;2024-03-25T03:52:11;7.68;;;2.00;;
54845;SDS011;53889;50.084;8.646;2024-03-25T03:54:42;7.70;;;1.80;;
54845;SDS011;53889;50.084;8.646;2024-03-25T03:57:09;8.80;;;2.03;;
54845;SDS011;53889;50.084;8.646;2024-03-25T03:59:38;6.35;;;1.88;;
54845;SDS011;53889;50.084;8.646;2024-03-25T04:02:04;10.50;;;2.25;;
54845;SDS011;53889;50.084;8.646;2024-03-25T04:04:32;4.70;;;1.73;;
54845;SDS011;53889;50.084;8.646;2024-03-25T04:06:58;6.32;;;2.10;;
54845;SDS011;53889;50.084;8.646;2024-03-25T04:09:26;7.28;;;1.92;;
54845;SDS011;53889;50.084;8.646;2024-03-25T04:11:54;6.15;;;1.98;;
54845;SDS011;53889;50.084;8.646;2024-03-25T04:14:21;9.77;;;2.50;;
54845;SDS011;53889;50.084;8.646;2024-03-25T04:16:49;6.13;;;1.90;;
54845;SDS011;53889;50.084;8.646;2024-03-25T04:19:18;6.07;;;2.42;;
54845;SDS011;53889;50.084;8.646;2024-03-25T04:21:44;7.28;;;1.83;;
54845;SDS011;53889;50.084;8.646;2024-03-25T04:24:11;8.60;;;2.10;;
54845;SDS011;53889;50.084;8.646;2024-03-25T04:26:38;8.93;;;2.47;;
54845;SDS011;53889;50.084;8.646;2024-03-25T04:29:05;10.85;;;2.40;;
54845;SDS011;53889;50.084;8.646;2024-03-25T04:31:31;7.80;;;2.17;;
54845;SDS011;53889;50.084;8.646;2024-03-25T04:33:59;7.30;;;2.00;;
54845;SDS011;53889;50.084;8.646;2024-03-25T04:36:26;10.48;;;2.28;;
54845;SDS011;53889;50.084;8.646;2024-03-25T04:38:54;8.60;;;2.50;;
54845;SDS011;53889;50.084;8.646;2024-03-25T04:41:20;7.07;;;2.38;;
54845;SDS011;53889;50.084;8.646;2024-03-25T04:43:46;6.55;;;2.22;;
54845;SDS011;53889;50.084;8.646;2024-03-25T04:46:12;7.20;;;2.30;;
54845;SDS011;53889;50.084;8.646;2024-03-25T04:48:38;5.35;;;2.03;;
54845;SDS011;53889;50.084;8.646;2024-03-25T04:51:06;6.97;;;2.10;;
54845;SDS011;53889;50.084;8.646;2024-03-25T04:53:33;6.80;;;2.15;;
54845;SDS011;53889;50.084;8.646;2024-03-25T04:55:59;8.23;;;2.38;;
54845;SDS011;53889;50.084;8.646;2024-03-25T04:58:25;6.55;;;2.63;;
54845;SDS011;53889;50.084;8.646;2024-03-25T05:00:52;8.05;;;2.50;;
54845;SDS011;53889;50.084;8.646;2024-03-25T05:03:18;7.60;;;2.33;;
54845;SDS011;53889;50.084;8.646;2024-03-25T05:05:45;8.52;;;2.58;;
54845;SDS011;53889;50.084;8.646;2024-03-25T05:08:12;9.95;;;2.30;;
54845;SDS011;53889;50.084;8.646;2024-03-25T05:10:39;8.80;;;2.15;;
54845;SDS011;53889;50.084;8.646;2024-03-25T05:13:06;12.82;;;2.40;;
54845;SDS011;53889;50.084;8.646;2024-03-25T05:15:32;9.23;;;2.58;;
54845;SDS011;53889;50.084;8.646;2024-03-25T05:17:59;8.48;;;2.25;;
54845;SDS011;53889;50.084;8.646;2024-03-25T05:20:27;8.63;;;2.53;;
54845;SDS011;53889;50.084;8.646;2024-03-25T05:22:58;5.72;;;2.30;;
54845;SDS011;53889;50.084;8.646;2024-03-25T05:25:26;8.55;;;3.13;;
54845;SDS011;53889;50.084;8.646;2024-03-25T05:27:52;8.27;;;2.60;;
54845;SDS011;53889;50.084;8.646;2024-03-25T05:30:19;8.52;;;2.65;;
54845;SDS011;53889;50.084;8.646;2024-03-25T05:32:45;8.32;;;2.78;;
54845;SDS011;53889;50.084;8.646;2024-03-25T05:35:13;8.90;;;2.85;;
54845;SDS011;53889;50.084;8.646;2024-03-25T05:37:39;8.60;;;2.70;;
54845;SDS011;53889;50.084;8.646;2024-03-25T05:40:06;10.75;;;2.80;;
54845;SDS011;53889;50.084;8.646;2024-03-25T05:42:35;9.85;;;3.25;;
54845;SDS011;53889;50.084;8.646;2024-03-25T05:45:01;6.82;;;2.45;;
54845;SDS011;53889;50.084;8.646;2024-03-25T05:47:28;8.57;;;2.80;;
54845;SDS011;53889;50.084;8.646;2024-03-25T05:49:54;7.18;;;2.53;;
54845;SDS011;53889;50.084;8.646;2024-03-25T05:52:21;10.05;;;2.90;;
54845;SDS011;53889;50.084;8.646;2024-03-25T05:54:47;7.97;;;2.92;;
54845;SDS011;53889;50.084;8.646;2024-03-25T05:57:13;8.77;;;3.58;;
54845;SDS011;53889;50.084;8.646;2024-03-25T05:59:41;7.75;;;2.78;;
54845;SDS011;53889;50.084;8.646;2024-03-25T06:02:08;7.60;;;3.03;;
54845;SDS011;53889;50.084;8.646;2024-03-25T06:04:35;4.18;;;2.60;;
54845;SDS011;53889;50.084;8.646;2024-03-25T06:07:03;6.30;;;2.13;;
54845;SDS011;53889;50.084;8.646;2024-03-25T06:09:31;11.60;;;2.72;;
54845;SDS011;53889;50.084;8.646;2024-03-25T06:11:59;7.72;;;2.65;;
54845;SDS011;53889;50.084;8.646;2024-03-25T06:14:26;8.13;;;2.90;;
54845;SDS011;53889;50.084;8.646;2024-03-25T06:16:54;8.85;;;2.47;;
54845;SDS011;53889;50.084;8.646;2024-03-25T06:19:23;10.77;;;3.00;;
54845;SDS011;53889;50.084;8.646;2024-03-25T06:21:51;6.68;;;2.42;;
54845;SDS011;53889;50.084;8.646;2024-03-25T06:24:20;6.72;;;2.60;;
54845;SDS011;53889;50.084;8.646;2024-03-25T06:26:46;10.23;;;3.42;;
54845;SDS011;53889;50.084;8.646;2024-03-25T06:29:13;8.55;;;3.13;;
54845;SDS011;53889;50.084;8.646;2024-03-25T06:31:39;7.80;;;2.70;;
54845;SDS011;53889;50.084;8.646;2024-03-25T06:37:13;7.03;;;2.42;;
54845;SDS011;53889;50.084;8.646;2024-03-25T06:39:40;6.45;;;2.20;;
54845;SDS011;53889;50.084;8.646;2024-03-25T06:42:06;11.85;;;2.83;;
54845;SDS011;53889;50.084;8.646;2024-03-25T06:44:32;6.70;;;2.20;;
54845;SDS011;53889;50.084;8.646;2024-03-25T06:46:59;9.60;;;3.58;;
54845;SDS011;53889;50.084;8.646;2024-03-25T06:49:25;7.75;;;2.40;;
54845;SDS011;53889;50.084;8.646;2024-03-25T06:51:52;7.95;;;3.05;;
54845;SDS011;53889;50.084;8.646;2024-03-25T06:54:18;7.68;;;2.40;;
54845;SDS011;53889;50.084;8.646;2024-03-25T06:56:44;6.10;;;2.22;;
54845;SDS011;53889;50.084;8.646;2024-03-25T06:59:10;8.00;;;2.45;;
54845;SDS011;53889;50.084;8.646;2024-03-25T07:01:36;5.88;;;1.80;;
54845;SDS011;53889;50.084;8.646;2024-03-25T07:04:02;5.43;;;2.08;;
54845;SDS011;53889;50.084;8.646;2024-03-25T07:06:28;5.10;;;1.77;;
54845;SDS011;53889;50.084;8.646;2024-03-25T07:08:55;6.95;;;2.00;;
54845;SDS011;53889;50.084;8.646;2024-03-25T07:11:21;7.85;;;2.30;;
54845;SDS011;53889;50.084;8.646;2024-03-25T07:13:47;5.88;;;1.75;;
54845;SDS011;53889;50.084;8.646;2024-03-25T07:16:13;5.47;;;1.83;;
54845;SDS011;53889;50.084;8.646;2024-03-25T07:18:38;7.05;;;1.77;;
54845;SDS011;53889;50.084;8.646;2024-03-25T07:21:04;5.35;;;1.60;;
54845;SDS011;53889;50.084;8.646;2024-03-25T07:23:30;6.70;;;2.00;;
54845;SDS011;53889;50.084;8.646;2024-03-25T07:25:57;4.70;;;1.80;;
54845;SDS011;53889;50.084;8.646;2024-03-25T07:28:27;9.60;;;4.05;;
54845;SDS011;53889;50.084;8.646;2024-03-25T07:30:53;6.22;;;1.70;;
54845;SDS011;53889;50.084;8.646;2024-03-25T07:33:19;7.65;;;1.92;;
54845;SDS011;53889;50.084;8.646;2024-03-25T07:35:45;6.97;;;1.73;;
54845;SDS011;53889;50.084;8.646;2024-03-25T07:38:11;6.32;;;1.90;;
54845;SDS011;53889;50.084;8.646;2024-03-25T07:40:37;7.25;;;2.30;;
54845;SDS011;53889;50.084;8.646;2024-03-25T07:43:04;4.93;;;1.60;;
54845;SDS011;53889;50.084;8.646;2024-03-25T07:45:30;6.68;;;1.67;;
54845;SDS011;53889;50.084;8.646;2024-03-25T07:47:56;4.90;;;1.70;;
54845;SDS011;53889;50.084;8.646;2024-03-25T07:50:22;4.22;;;1.58;;
54845;SDS011;53889;50.084;8.646;2024-03-25T07:52:48;7.82;;;1.90;;
54845;SDS011;53889;50.084;8.646;2024-03-25T07:55:15;4.10;;;1.70;;
54845;SDS011;53889;50.084;8.646;2024-03-25T07:57:40;7.47;;;2.42;;
54845;SDS011;53889;50.084;8.646;2024-03-25T08:00:08;8.00;;;1.90;;
54845;SDS011;53889;50.084;8.646;2024-03-25T08:02:40;6.32;;;1.83;;
54845;SDS011;53889;50.084;8.646;2024-03-25T08:05:06;6.95;;;1.58;;
54845;SDS011;53889;50.084;8.646;2024-03-25T08:07:32;6.00;;;1.83;;
54845;SDS011;53889;50.084;8.646;2024-03-25T08:09:58;6.43;;;1.95;;
54845;SDS011;53889;50.084;8.646;2024-03-25T08:12:24;7.95;;;1.63;;
54845;SDS011;53889;50.084;8.646;2024-03-25T08:14:50;6.50;;;2.15;;
54845;SDS011;53889;50.084;8.646;2024-03-25T08:17:17;4.25;;;1.40;;
54845;SDS011;53889;50.084;8.646;2024-03-25T08:19:44;6.70;;;1.70;;
54845;SDS011;53889;50.084;8.646;2024-03-25T08:22:10;5.90;;;2.00;;
54845;SDS011;53889;50.084;8.646;2024-03-25T08:24:35;6.45;;;1.67;;
54845;SDS011;53889;50.084;8.646;2024-03-25T08:27:01;5.30;;;1.80;;
54845;SDS011;53889;50.084;8.646;2024-03-25T08:29:27;5.15;;;1.50;;
54845;SDS011;53889;50.084;8.646;2024-03-25T08:31:53;7.47;;;2.08;;
54845;SDS011;53889;50.084;8.646;2024-03-25T08:34:21;4.90;;;1.67;;
54845;SDS011;53889;50.084;8.646;2024-03-25T08:36:46;8.27;;;2.53;;
54845;SDS011;53889;50.084;8.646;2024-03-25T08:39:12;8.07;;;1.80;;
54845;SDS011;53889;50.084;8.646;2024-03-25T08:41:38;6.82;;;1.52;;
54845;SDS011;53889;50.084;8.646;2024-03-25T08:44:04;6.05;;;1.63;;
54845;SDS011;53889;50.084;8.646;2024-03-25T08:46:30;6.05;;;1.38;;
54845;SDS011;53889;50.084;8.646;2024-03-25T08:48:56;7.65;;;1.70;;
54845;SDS011;53889;50.084;8.646;2024-03-25T08:51:23;7.68;;;2.28;;
54845;SDS011;53889;50.084;8.646;2024-03-25T08:53:49;5.50;;;1.55;;
54845;SDS011;53889;50.084;8.646;2024-03-25T08:56:14;6.93;;;1.98;;
54845;SDS011;53889;50.084;8.646;2024-03-25T08:58:40;5.63;;;2.20;;
54845;SDS011;53889;50.084;8.646;2024-03-25T09:01:06;5.38;;;1.70;;
54845;SDS011;53889;50.084;8.646;2024-03-25T09:03:32;5.00;;;1.35;;
54845;SDS011;53889;50.084;8.646;2024-03-25T09:05:58;7.20;;;1.70;;
54845;SDS011;53889;50.084;8.646;2024-03-25T09:08:25;5.28;;;1.50;;
54845;SDS011;53889;50.084;8.646;2024-03-25T09:10:51;8.50;;;1.73;;
54845;SDS011;53889;50.084;8.646;2024-03-25T09:13:29;5.78;;;1.30;;
54845;SDS011;53889;50.084;8.646;2024-03-25T09:15:55;5.72;;;1.50;;
54845;SDS011;53889;50.084;8.646;2024-03-25T09:18:21;5.32;;;1.40;;
54845;SDS011;53889;50.084;8.646;2024-03-25T09:20:47;7.22;;;1.80;;
54845;SDS011;53889;50.084;8.646;2024-03-25T09:23:13;9.13;;;2.30;;
54845;SDS011;53889;50.084;8.646;2024-03-25T09:25:40;5.82;;;1.75;;
54845;SDS011;53889;50.084;8.646;2024-03-25T09:28:16;6.80;;;2.25;;
54845;SDS011;53889;50.084;8.646;2024-03-25T09:30:42;5.85;;;1.63;;
54845;SDS011;53889;50.084;8.646;2024-03-25T09:33:08;6.65;;;1.70;;
54845;SDS011;53889;50.084;8.646;2024-03-25T09:35:33;6.10;;;1.48;;
54845;SDS011;53889;50.084;8.646;2024-03-25T09:37:59;6.85;;;1.55;;
54845;SDS011;53889;50.084;8.646;2024-03-25T09:40:25;6.88;;;1.67;;
54845;SDS011;53889;50.084;8.646;2024-03-25T09:42:55;5.28;;;1.52;;
54845;SDS011;53889;50.084;8.646;2024-03-25T09:45:22;7.47;;;1.92;;
54845;SDS011;53889;50.084;8.646;2024-03-25T09:47:50;6.05;;;1.55;;
54845;SDS011;53889;50.084;8.646;2024-03-25T09:50:17;7.10;;;1.77;;
54845;SDS011;53889;50.084;8.646;2024-03-25T09:52:43;5.47;;;1.20;;
54845;SDS011;53889;50.084;8.646;2024-03-25T09:55:09;4.82;;;1.60;;
54845;SDS011;53889;50.084;8.646;2024-03-25T09:57:35;5.30;;;1.50;;
54845;SDS011;53889;50.084;8.646;2024-03-25T10:00:04;7.43;;;2.10;;
54845;SDS011;53889;50.084;8.646;2024-03-25T10:02:38;9.50;;;1.83;;
54845;SDS011;53889;50.084;8.646;2024-03-25T10:05:05;7.28;;;1.50;;
54845;SDS011;53889;50.084;8.646;2024-03-25T10:07:31;7.88;;;1.80;;
54845;SDS011;53889;50.084;8.646;2024-03-25T10:09:59;5.18;;;1.65;;
54845;SDS011;53889;50.084;8.646;2024-03-25T10:12:25;6.13;;;1.40;;
54845;SDS011;53889;50.084;8.646;2024-03-25T10:14:51;5.60;;;1.52;;
54845;SDS011;53889;50.084;8.646;2024-03-25T10:17:18;6.20;;;1.70;;
54845;SDS011;53889;50.084;8.646;2024-03-25T10:19:44;7.30;;;1.50;;
54845;SDS011;53889;50.084;8.646;2024-03-25T10:22:09;7.07;;;1.60;;
54845;SDS011;53889;50.084;8.646;2024-03-25T10:24:36;8.77;;;1.80;;
54845;SDS011;53889;50.084;8.646;2024-03-25T10:27:03;8.60;;;1.90;;
54845;SDS011;53889;50.084;8.646;2024-03-25T10:29:29;8.68;;;2.20;;
54845;SDS011;53889;50.084;8.646;2024-03-25T10:31:58;9.05;;;1.90;;
54845;SDS011;53889;50.084;8.646;2024-03-25T10:34:26;6.50;;;1.45;;
54845;SDS011;53889;50.084;8.646;2024-03-25T10:36:52;5.97;;;1.50;;
54845;SDS011;53889;50.084;8.646;2024-03-25T10:39:21;3.88;;;1.40;;
54845;SDS011;53889;50.084;8.646;2024-03-25T10:41:51;6.07;;;1.90;;
54845;SDS011;53889;50.084;8.646;2024-03-25T10:44:21;8.75;;;1.63;;
54845;SDS011;53889;50.084;8.646;2024-03-25T10:46:48;5.88;;;1.75;;
54845;SDS011;53889;50.084;8.646;2024-03-25T10:49:19;4.00;;;1.30;;
54845;SDS011;53889;50.084;8.646;2024-03-25T10:51:53;6.00;;;1.73;;
54845;SDS011;53889;50.084;8.646;2024-03-25T10:54:21;5.43;;;1.40;;
54845;SDS011;53889;50.084;8.646;2024-03-25T10:56:48;4.55;;;1.40;;
54845;SDS011;53889;50.084;8.646;2024-03-25T10:59:14;5.47;;;1.60;;
54845;SDS011;53889;50.084;8.646;2024-03-25T11:01:40;4.47;;;1.50;;
54845;SDS011;53889;50.084;8.646;2024-03-25T11:04:06;5.97;;;1.40;;
54845;SDS011;53889;50.084;8.646;2024-03-25T11:06:32;5.30;;;1.75;;
54845;SDS011;53889;50.084;8.646;2024-03-25T11:08:59;5.50;;;1.42;;
54845;SDS011;53889;50.084;8.646;2024-03-25T11:11:30;5.20;;;1.50;;
54845;SDS011;53889;50.084;8.646;2024-03-25T11:13:57;7.20;;;1.70;;
54845;SDS011;53889;50.084;8.646;2024-03-25T11:16:26;5.15;;;1.50;;
54845;SDS011;53889;50.084;8.646;2024-03-25T11:18:54;5.82;;;1.48;;
54845;SDS011;53889;50.084;8.646;2024-03-25T11:21:24;7.35;;;2.03;;
54845;SDS011;53889;50.084;8.646;2024-03-25T11:23:50;6.10;;;1.70;;
54845;SDS011;53889;50.084;8.646;2024-03-25T11:26:19;5.32;;;1.63;;
54845;SDS011;53889;50.084;8.646;2024-03-25T11:28:46;4.85;;;1.80;;
54845;SDS011;53889;50.084;8.646;2024-03-25T11:31:14;7.00;;;1.90;;
54845;SDS011;53889;50.084;8.646;2024-03-25T11:33:41;5.70;;;1.80;;
54845;SDS011;53889;50.084;8.646;2024-03-25T11:36:07;5.72;;;1.77;;
54845;SDS011;53889;50.084;8.646;2024-03-25T11:38:34;6.28;;;1.70;;
54845;SDS011;53889;50.084;8.646;2024-03-25T11:41:01;5.68;;;1.70;;
54845;SDS011;53889;50.084;8.646;2024-03-25T11:43:29;6.90;;;1.92;;
54845;SDS011;53889;50.084;8.646;2024-03-25T11:45:55;5.05;;;1.77;;
54845;SDS011;53889;50.084;8.646;2024-03-25T11:48:21;8.25;;;1.67;;
54845;SDS011;53889;50.084;8.646;2024-03-25T11:50:47;5.82;;;1.52;;
54845;SDS011;53889;50.084;8.646;2024-03-25T11:53:16;6.55;;;1.73;;
54845;SDS011;53889;50.084;8.646;2024-03-25T11:55:45;3.85;;;1.33;;
54845;SDS011;53889;50.084;8.646;2024-03-25T11:58:11;6.70;;;1.85;;
54845;SDS011;53889;50.084;8.646;2024-03-25T12:00:43;6.28;;;1.80;;
54845;SDS011;53889;50.084;8.646;2024-03-25T12:03:10;4.07;;;1.25;;
54845;SDS011;53889;50.084;8.646;2024-03-25T12:05:38;6.65;;;1.63;;
54845;SDS011;53889;50.084;8.646;2024-03-25T12:08:04;4.93;;;1.60;;
54845;SDS011;53889;50.084;8.646;2024-03-25T12:10:33;5.80;;;1.60;;
54845;SDS011;53889;50.084;8.646;2024-03-25T12:13:19;4.80;;;1.58;;
54845;SDS011;53889;50.084;8.646;2024-03-25T12:15:46;6.10;;;1.60;;
54845;SDS011;53889;50.084;8.646;2024-03-25T12:18:13;7.07;;;1.98;;
54845;SDS011;53889;50.084;8.646;2024-03-25T12:20:39;4.32;;;1.40;;
54845;SDS011;53889;50.084;8.646;2024-03-25T12:23:05;5.00;;;1.75;;
54845;SDS011;53889;50.084;8.646;2024-03-25T12:25:31;7.68;;;1.88;;
54845;SDS011;53889;50.084;8.646;2024-03-25T12:27:57;6.22;;;1.60;;
54845;SDS011;53889;50.084;8.646;2024-03-25T12:30:23;5.43;;;1.55;;
54845;SDS011;53889;50.084;8.646;2024-03-25T12:32:50;4.72;;;1.23;;
54845;SDS011;53889;50.084;8.646;2024-03-25T12:35:17;5.93;;;1.48;;
54845;SDS011;53889;50.084;8.646;2024-03-25T12:37:46;5.20;;;1.80;;
54845;SDS011;53889;50.084;8.646;2024-03-25T12:40:13;5.20;;;1.50;;
54845;SDS011;53889;50.084;8.646;2024-03-25T12:42:51;5.45;;;1.60;;
54845;SDS011;53889;50.084;8.646;2024-03-25T12:45:17;6.03;;;1.77;;
54845;SDS011;53889;50.084;8.646;2024-03-25T12:47:43;5.63;;;1.35;;
54845;SDS011;53889;50.084;8.646;2024-03-25T12:50:11;5.63;;;1.45;;
54845;SDS011;53889;50.084;8.646;2024-03-25T12:52:37;4.63;;;1.55;;
54845;SDS011;53889;50.084;8.646;2024-03-25T12:55:03;5.63;;;1.60;;
54845;SDS011;53889;50.084;8.646;2024-03-25T12:57:29;4.75;;;1.50;;
54845;SDS011;53889;50.084;8.646;2024-03-25T12:59:55;5.90;;;1.50;;
54845;SDS011;53889;50.084;8.646;2024-03-25T13:02:21;5.45;;;1.50;;
54845;SDS011;53889;50.084;8.646;2024-03-25T13:04:47;5.68;;;1.35;;
54845;SDS011;53889;50.084;8.646;2024-03-25T13:07:14;6.15;;;1.42;;
54845;SDS011;53889;50.084;8.646;2024-03-25T13:09:40;5.88;;;1.48;;
54845;SDS011;53889;50.084;8.646;2024-03-25T13:12:06;6.93;;;1.33;;
54845;SDS011;53889;50.084;8.646;2024-03-25T13:14:32;3.80;;;1.20;;
54845;SDS011;53889;50.084;8.646;2024-03-25T13:16:58;3.00;;;1.10;;
54845;SDS011;53889;50.084;8.646;2024-03-25T13:19:24;3.55;;;1.10;;
54845;SDS011;53889;50.084;8.646;2024-03-25T13:21:50;4.97;;;1.15;;
54845;SDS011;53889;50.084;8.646;2024-03-25T13:24:17;4.13;;;1.40;;
54845;SDS011;53889;50.084;8.646;2024-03-25T13:26:43;5.57;;;1.20;;
54845;SDS011;53889;50.084;8.646;2024-03-25T13:29:08;6.70;;;1.52;;
54845;SDS011;53889;50.084;8.646;2024-03-25T13:31:35;4.35;;;1.38;;
54845;SDS011;53889;50.084;8.646;2024-03-25T13:34:01;3.17;;;1.13;;
54845;SDS011;53889;50.084;8.646;2024-03-25T13:36:27;4.40;;;1.27;;
54845;SDS011;53889;50.084;8.646;2024-03-25T13:38:53;3.75;;;1.13;;
54845;SDS011;53889;50.084;8.646;2024-03-25T13:41:20;4.43;;;1.27;;
54845;SDS011;53889;50.084;8.646;2024-03-25T13:43:46;3.97;;;1.20;;
54845;SDS011;53889;50.084;8.646;2024-03-25T13:46:12;4.38;;;1.52;;
54845;SDS011;53889;50.084;8.646;2024-03-25T13:48:38;7.82;;;1.40;;
54845;SDS011;53889;50.084;8.646;2024-03-25T13:51:04;3.97;;;1.20;;
54845;SDS011;53889;50.084;8.646;2024-03-25T13:53:30;5.93;;;1.33;;
54845;SDS011;53889;50.084;8.646;2024-03-25T13:55:56;4.45;;;1.13;;
54845;SDS011;53889;50.084;8.646;2024-03-25T13:58:23;6.00;;;1.30;;
54845;SDS011;53889;50.084;8.646;2024-03-25T14:00:49;4.82;;;1.30;;
54845;SDS011;53889;50.084;8.646;2024-03-25T14:03:15;6.70;;;1.45;;
54845;SDS011;53889;50.084;8.646;2024-03-25T14:05:41;4.07;;;1.20;;
54845;SDS011;53889;50.084;8.646;2024-03-25T14:08:07;4.63;;;1.40;;
54845;SDS011;53889;50.084;8.646;2024-03-25T14:10:33;3.63;;;1.38;;
54845;SDS011;53889;50.084;8.646;2024-03-25T14:12:59;5.40;;;1.27;;
54845;SDS011;53889;50.084;8.646;2024-03-25T14:15:26;5.75;;;1.27;;
54845;SDS011;53889;50.084;8.646;2024-03-25T14:17:52;5.32;;;1.00;;
54845;SDS011;53889;50.084;8.646;2024-03-25T14:20:18;4.20;;;1.25;;
54845;SDS011;53889;50.084;8.646;2024-03-25T14:22:47;3.90;;;1.10;;
54845;SDS011;53889;50.084;8.646;2024-03-25T14:25:13;5.32;;;1.83;;
54845;SDS011;53889;50.084;8.646;2024-03-25T14:27:39;7.05;;;1.50;;
54845;SDS011;53889;50.084;8.646;2024-03-25T14:30:06;4.00;;;1.08;;
54845;SDS011;53889;50.084;8.646;2024-03-25T14:32:34;6.60;;;2.30;;
54845;SDS011;53889;50.084;8.646;2024-03-25T14:35:00;4.80;;;1.23;;
54845;SDS011;53889;50.084;8.646;2024-03-25T14:37:25;7.65;;;1.20;;
54845;SDS011;53889;50.084;8.646;2024-03-25T14:39:51;3.65;;;1.33;;
54845;SDS011;53889;50.084;8.646;2024-03-25T14:42:17;3.28;;;0.90;;
54845;SDS011;53889;50.084;8.646;2024-03-25T14:44:43;4.18;;;1.10;;
54845;SDS011;53889;50.084;8.646;2024-03-25T14:47:09;4.32;;;1.30;;
54845;SDS011;53889;50.084;8.646;2024-03-25T14:49:36;7.57;;;1.63;;
54845;SDS011;53889;50.084;8.646;2024-03-25T14:52:04;3.63;;;0.98;;
54845;SDS011;53889;50.084;8.646;2024-03-25T14:54:32;4.22;;;1.30;;
54845;SDS011;53889;50.084;8.646;2024-03-25T14:56:59;3.40;;;1.05;;
54845;SDS011;53889;50.084;8.646;2024-03-25T14:59:25;6.93;;;1.10;;
54845;SDS011;53889;50.084;8.646;2024-03-25T15:01:51;3.70;;;1.17;;
54845;SDS011;53889;50.084;8.646;2024-03-25T15:04:17;4.80;;;1.20;;
54845;SDS011;53889;50.084;8.646;2024-03-25T15:06:44;4.82;;;1.20;;
54845;SDS011;53889;50.084;8.646;2024-03-25T15:09:10;5.35;;;1.30;;
54845;SDS011;53889;50.084;8.646;2024-03-25T15:11:36;6.18;;;1.48;;
54845;SDS011;53889;50.084;8.646;2024-03-25T15:14:02;5.78;;;1.35;;
54845;SDS011;53889;50.084;8.646;2024-03-25T15:16:28;3.67;;;1.10;;
54845;SDS011;53889;50.084;8.646;2024-03-25T15:18:53;4.90;;;1.33;;
54845;SDS011;53889;50.084;8.646;2024-03-25T15:21:19;5.32;;;1.10;;
54845;SDS011;53889;50.084;8.646;2024-03-25T15:23:47;4.45;;;1.20;;
54845;SDS011;53889;50.084;8.646;2024-03-25T15:26:12;4.07;;;1.00;;
54845;SDS011;53889;50.084;8.646;2024-03-25T15:28:38;4.32;;;1.10;;
54845;SDS011;53889;50.084;8.646;2024-03-25T15:31:04;5.30;;;1.55;;
54845;SDS011;53889;50.084;8.646;2024-03-25T15:33:30;2.67;;;1.23;;
54845;SDS011;53889;50.084;8.646;2024-03-25T15:35:56;4.28;;;1.15;;
54845;SDS011;53889;50.084;8.646;2024-03-25T15:38:22;3.50;;;1.10;;
54845;SDS011;53889;50.084;8.646;2024-03-25T15:40:49;3.15;;;0.98;;
54845;SDS011;53889;50.084;8.646;2024-03-25T15:43:15;4.60;;;1.20;;
54845;SDS011;53889;50.084;8.646;2024-03-25T15:45:41;5.50;;;1.40;;
54845;SDS011;53889;50.084;8.646;2024-03-25T15:48:07;4.93;;;1.10;;
54845;SDS011;53889;50.084;8.646;2024-03-25T15:50:33;4.07;;;1.30;;
54845;SDS011;53889;50.084;8.646;2024-03-25T15:52:59;5.72;;;1.38;;
54845;SDS011;53889;50.084;8.646;2024-03-25T15:55:25;5.10;;;1.40;;
54845;SDS011;53889;50.084;8.646;2024-03-25T15:57:52;6.60;;;1.70;;